KAID/AID METAR and TAF weather

Enter ICAO airport designator
Station Type Date Time Source
KAID METAR 2020/04/07 03:35 UTC NOAA

KAID 070335Z AUTO 00000KT 10SM SCT065 13/10 A2999 RMK AO2 T01320101


Station Type Date Time Source
KAID Decoded METAR 2020/04/07 03:35 UTC NOAA

Anderson Municipal, IN, United States (KAID) 40-07N 085-37W
Apr 06, 2020 - 11:35 PM EDT / 2020.04.07 0335 UTC
Wind: Calm:0
Visibility: 10 mile(s):0
Sky conditions: partly cloudy
Temperature: 55.8 F (13.2 C)
Dew Point: 50.2 F (10.1 C)
Relative Humidity: 81%
Pressure (altimeter): 29.99 in. Hg (1015 hPa)
ob: KAID 070335Z AUTO 00000KT 10SM SCT065 13/10 A2999 RMK AO2 T01320101
cycle: 3

Station Type Date Time Source
KAID TAF UTC NOAA

Error!

Example: see airport list